sensor_id;sensor_type;location;lat;lon;timestamp;P1;durP1;ratioP1;P2;durP2;ratioP2
73150;SDS011;61354;50.758;6.106;2022-10-16T00:00:38;2.35;;;1.00;;
73150;SDS011;61354;50.758;6.106;2022-10-16T00:03:04;0.70;;;0.70;;
73150;SDS011;61354;50.758;6.106;2022-10-16T00:05:30;1.58;;;1.02;;
73150;SDS011;61354;50.758;6.106;2022-10-16T00:07:56;0.88;;;0.70;;
73150;SDS011;61354;50.758;6.106;2022-10-16T00:10:21;1.35;;;0.82;;
73150;SDS011;61354;50.758;6.106;2022-10-16T00:12:47;0.88;;;0.75;;
73150;SDS011;61354;50.758;6.106;2022-10-16T00:15:13;1.38;;;0.85;;
73150;SDS011;61354;50.758;6.106;2022-10-16T00:17:39;2.35;;;0.90;;
73150;SDS011;61354;50.758;6.106;2022-10-16T00:20:04;1.85;;;0.80;;
73150;SDS011;61354;50.758;6.106;2022-10-16T00:22:30;1.52;;;0.82;;
73150;SDS011;61354;50.758;6.106;2022-10-16T00:24:56;1.60;;;0.90;;
73150;SDS011;61354;50.758;6.106;2022-10-16T00:27:21;1.48;;;0.80;;
73150;SDS011;61354;50.758;6.106;2022-10-16T00:29:50;1.33;;;0.70;;
73150;SDS011;61354;50.758;6.106;2022-10-16T00:32:17;0.70;;;0.70;;
73150;SDS011;61354;50.758;6.106;2022-10-16T00:34:45;0.60;;;0.60;;
73150;SDS011;61354;50.758;6.106;2022-10-16T00:37:11;1.27;;;0.82;;
73150;SDS011;61354;50.758;6.106;2022-10-16T00:39:37;2.00;;;0.70;;
73150;SDS011;61354;50.758;6.106;2022-10-16T00:42:02;1.52;;;1.00;;
73150;SDS011;61354;50.758;6.106;2022-10-16T00:47:39;1.77;;;0.80;;
73150;SDS011;61354;50.758;6.106;2022-10-16T00:50:13;3.78;;;0.75;;
73150;SDS011;61354;50.758;6.106;2022-10-16T00:52:42;2.38;;;0.80;;
73150;SDS011;61354;50.758;6.106;2022-10-16T00:55:11;0.98;;;0.70;;
73150;SDS011;61354;50.758;6.106;2022-10-16T00:57:37;1.85;;;0.90;;
73150;SDS011;61354;50.758;6.106;2022-10-16T01:00:04;0.70;;;0.65;;
73150;SDS011;61354;50.758;6.106;2022-10-16T01:02:31;1.08;;;0.80;;
73150;SDS011;61354;50.758;6.106;2022-10-16T01:04:57;2.05;;;0.80;;
73150;SDS011;61354;50.758;6.106;2022-10-16T01:10:36;0.90;;;0.50;;
73150;SDS011;61354;50.758;6.106;2022-10-16T01:13:06;1.42;;;0.90;;
73150;SDS011;61354;50.758;6.106;2022-10-16T01:18:05;1.75;;;0.63;;
73150;SDS011;61354;50.758;6.106;2022-10-16T01:20:48;0.95;;;0.80;;
73150;SDS011;61354;50.758;6.106;2022-10-16T01:28:38;0.60;;;0.60;;
73150;SDS011;61354;50.758;6.106;2022-10-16T01:31:08;1.30;;;0.70;;
73150;SDS011;61354;50.758;6.106;2022-10-16T01:33:38;1.65;;;0.68;;
73150;SDS011;61354;50.758;6.106;2022-10-16T01:36:10;1.65;;;0.77;;
73150;SDS011;61354;50.758;6.106;2022-10-16T01:38:40;0.90;;;0.65;;
73150;SDS011;61354;50.758;6.106;2022-10-16T01:43:38;0.98;;;0.60;;
73150;SDS011;61354;50.758;6.106;2022-10-16T01:46:10;0.75;;;0.60;;
73150;SDS011;61354;50.758;6.106;2022-10-16T01:51:05;0.82;;;0.70;;
73150;SDS011;61354;50.758;6.106;2022-10-16T01:53:35;1.15;;;0.70;;
73150;SDS011;61354;50.758;6.106;2022-10-16T01:56:02;2.35;;;0.70;;
73150;SDS011;61354;50.758;6.106;2022-10-16T01:58:33;1.70;;;0.57;;
73150;SDS011;61354;50.758;6.106;2022-10-16T02:01:02;1.38;;;0.65;;
73150;SDS011;61354;50.758;6.106;2022-10-16T02:03:29;1.20;;;0.80;;
73150;SDS011;61354;50.758;6.106;2022-10-16T02:05:57;1.92;;;0.60;;
73150;SDS011;61354;50.758;6.106;2022-10-16T02:08:24;2.22;;;0.75;;
73150;SDS011;61354;50.758;6.106;2022-10-16T02:10:54;1.10;;;0.80;;
73150;SDS011;61354;50.758;6.106;2022-10-16T02:13:26;0.73;;;0.70;;
73150;SDS011;61354;50.758;6.106;2022-10-16T02:15:52;0.77;;;0.68;;
73150;SDS011;61354;50.758;6.106;2022-10-16T02:18:18;0.60;;;0.60;;
73150;SDS011;61354;50.758;6.106;2022-10-16T02:23:50;3.33;;;0.80;;
73150;SDS011;61354;50.758;6.106;2022-10-16T02:27:10;0.98;;;0.80;;
73150;SDS011;61354;50.758;6.106;2022-10-16T02:29:28;1.15;;;0.80;;
73150;SDS011;61354;50.758;6.106;2022-10-16T02:31:55;1.67;;;0.85;;
73150;SDS011;61354;50.758;6.106;2022-10-16T02:34:24;1.02;;;0.68;;
73150;SDS011;61354;50.758;6.106;2022-10-16T02:36:51;1.17;;;0.77;;
73150;SDS011;61354;50.758;6.106;2022-10-16T02:39:18;1.55;;;0.90;;
73150;SDS011;61354;50.758;6.106;2022-10-16T02:41:45;1.10;;;0.80;;
73150;SDS011;61354;50.758;6.106;2022-10-16T02:44:10;1.88;;;1.10;;
73150;SDS011;61354;50.758;6.106;2022-10-16T02:46:36;2.05;;;1.08;;
73150;SDS011;61354;50.758;6.106;2022-10-16T02:49:01;1.48;;;1.00;;
73150;SDS011;61354;50.758;6.106;2022-10-16T02:51:27;1.15;;;0.90;;
73150;SDS011;61354;50.758;6.106;2022-10-16T02:53:52;2.72;;;1.85;;
73150;SDS011;61354;50.758;6.106;2022-10-16T02:56:17;1.35;;;0.85;;
73150;SDS011;61354;50.758;6.106;2022-10-16T02:58:43;2.13;;;0.90;;
73150;SDS011;61354;50.758;6.106;2022-10-16T03:01:09;0.93;;;0.80;;
73150;SDS011;61354;50.758;6.106;2022-10-16T03:03:34;1.35;;;0.90;;
73150;SDS011;61354;50.758;6.106;2022-10-16T03:05:59;1.48;;;0.98;;
73150;SDS011;61354;50.758;6.106;2022-10-16T03:08:25;1.48;;;1.10;;
73150;SDS011;61354;50.758;6.106;2022-10-16T03:10:50;1.38;;;0.90;;
73150;SDS011;61354;50.758;6.106;2022-10-16T03:13:16;3.55;;;1.20;;
73150;SDS011;61354;50.758;6.106;2022-10-16T03:15:42;1.75;;;1.10;;
73150;SDS011;61354;50.758;6.106;2022-10-16T03:18:07;1.48;;;1.08;;
73150;SDS011;61354;50.758;6.106;2022-10-16T03:20:32;0.90;;;0.85;;
73150;SDS011;61354;50.758;6.106;2022-10-16T03:22:58;1.55;;;0.93;;
73150;SDS011;61354;50.758;6.106;2022-10-16T03:25:23;3.53;;;1.02;;
73150;SDS011;61354;50.758;6.106;2022-10-16T03:27:49;1.23;;;0.80;;
73150;SDS011;61354;50.758;6.106;2022-10-16T03:30:14;2.00;;;0.98;;
73150;SDS011;61354;50.758;6.106;2022-10-16T03:32:41;1.85;;;0.95;;
73150;SDS011;61354;50.758;6.106;2022-10-16T03:35:06;1.88;;;0.90;;
73150;SDS011;61354;50.758;6.106;2022-10-16T03:37:32;2.22;;;1.23;;
73150;SDS011;61354;50.758;6.106;2022-10-16T03:39:57;1.38;;;0.93;;
73150;SDS011;61354;50.758;6.106;2022-10-16T03:42:24;1.65;;;1.00;;
73150;SDS011;61354;50.758;6.106;2022-10-16T03:44:49;1.63;;;1.00;;
73150;SDS011;61354;50.758;6.106;2022-10-16T03:47:14;2.38;;;0.93;;
73150;SDS011;61354;50.758;6.106;2022-10-16T03:49:40;1.80;;;1.10;;
73150;SDS011;61354;50.758;6.106;2022-10-16T03:52:05;1.55;;;1.00;;
73150;SDS011;61354;50.758;6.106;2022-10-16T03:54:31;1.92;;;1.00;;
73150;SDS011;61354;50.758;6.106;2022-10-16T03:56:56;2.30;;;0.90;;
73150;SDS011;61354;50.758;6.106;2022-10-16T03:59:21;1.00;;;0.90;;
73150;SDS011;61354;50.758;6.106;2022-10-16T04:01:47;1.30;;;0.80;;
73150;SDS011;61354;50.758;6.106;2022-10-16T04:04:12;1.17;;;0.82;;
73150;SDS011;61354;50.758;6.106;2022-10-16T04:06:38;2.00;;;1.02;;
73150;SDS011;61354;50.758;6.106;2022-10-16T04:09:03;1.73;;;1.17;;
73150;SDS011;61354;50.758;6.106;2022-10-16T04:11:28;3.53;;;1.33;;
73150;SDS011;61354;50.758;6.106;2022-10-16T04:13:54;2.90;;;1.02;;
73150;SDS011;61354;50.758;6.106;2022-10-16T04:16:20;2.60;;;1.13;;
73150;SDS011;61354;50.758;6.106;2022-10-16T04:18:45;2.10;;;1.17;;
73150;SDS011;61354;50.758;6.106;2022-10-16T04:21:11;1.80;;;1.20;;
73150;SDS011;61354;50.758;6.106;2022-10-16T04:23:36;1.90;;;1.10;;
73150;SDS011;61354;50.758;6.106;2022-10-16T04:26:02;2.70;;;1.10;;
73150;SDS011;61354;50.758;6.106;2022-10-16T04:28:27;2.70;;;1.00;;
73150;SDS011;61354;50.758;6.106;2022-10-16T04:30:53;4.30;;;1.00;;
73150;SDS011;61354;50.758;6.106;2022-10-16T04:33:18;2.22;;;1.60;;
73150;SDS011;61354;50.758;6.106;2022-10-16T04:35:44;1.92;;;1.13;;
73150;SDS011;61354;50.758;6.106;2022-10-16T04:38:09;1.92;;;1.20;;
73150;SDS011;61354;50.758;6.106;2022-10-16T04:40:34;1.83;;;1.30;;
73150;SDS011;61354;50.758;6.106;2022-10-16T04:43:03;2.35;;;1.00;;
73150;SDS011;61354;50.758;6.106;2022-10-16T04:45:29;1.58;;;1.02;;
73150;SDS011;61354;50.758;6.106;2022-10-16T04:47:58;3.38;;;1.10;;
73150;SDS011;61354;50.758;6.106;2022-10-16T04:50:24;3.25;;;1.33;;
73150;SDS011;61354;50.758;6.106;2022-10-16T04:52:49;1.98;;;1.20;;
73150;SDS011;61354;50.758;6.106;2022-10-16T04:55:14;3.45;;;1.20;;
73150;SDS011;61354;50.758;6.106;2022-10-16T04:57:40;2.17;;;1.05;;
73150;SDS011;61354;50.758;6.106;2022-10-16T05:00:06;2.05;;;1.20;;
73150;SDS011;61354;50.758;6.106;2022-10-16T05:02:33;2.45;;;1.10;;
73150;SDS011;61354;50.758;6.106;2022-10-16T05:04:58;2.72;;;1.10;;
73150;SDS011;61354;50.758;6.106;2022-10-16T05:07:24;1.20;;;0.98;;
73150;SDS011;61354;50.758;6.106;2022-10-16T05:09:49;2.25;;;1.10;;
73150;SDS011;61354;50.758;6.106;2022-10-16T05:12:15;2.83;;;1.20;;
73150;SDS011;61354;50.758;6.106;2022-10-16T05:14:40;2.13;;;1.00;;
73150;SDS011;61354;50.758;6.106;2022-10-16T05:17:05;2.08;;;1.20;;
73150;SDS011;61354;50.758;6.106;2022-10-16T05:19:31;2.72;;;1.20;;
73150;SDS011;61354;50.758;6.106;2022-10-16T05:21:56;1.70;;;1.00;;
73150;SDS011;61354;50.758;6.106;2022-10-16T05:24:21;1.90;;;1.10;;
73150;SDS011;61354;50.758;6.106;2022-10-16T05:26:47;3.00;;;1.40;;
73150;SDS011;61354;50.758;6.106;2022-10-16T05:29:12;2.78;;;1.33;;
73150;SDS011;61354;50.758;6.106;2022-10-16T05:31:38;2.22;;;1.20;;
73150;SDS011;61354;50.758;6.106;2022-10-16T05:34:03;2.13;;;1.38;;
73150;SDS011;61354;50.758;6.106;2022-10-16T05:36:28;2.10;;;1.10;;
73150;SDS011;61354;50.758;6.106;2022-10-16T05:38:54;1.50;;;1.00;;
73150;SDS011;61354;50.758;6.106;2022-10-16T05:41:19;2.40;;;1.30;;
73150;SDS011;61354;50.758;6.106;2022-10-16T05:43:46;1.48;;;1.10;;
73150;SDS011;61354;50.758;6.106;2022-10-16T05:46:13;2.42;;;1.17;;
73150;SDS011;61354;50.758;6.106;2022-10-16T05:48:39;2.83;;;1.20;;
73150;SDS011;61354;50.758;6.106;2022-10-16T05:51:05;2.15;;;0.90;;
73150;SDS011;61354;50.758;6.106;2022-10-16T05:55:59;1.92;;;1.00;;
73150;SDS011;61354;50.758;6.106;2022-10-16T05:58:25;1.33;;;1.00;;
73150;SDS011;61354;50.758;6.106;2022-10-16T06:00:54;2.67;;;1.10;;
73150;SDS011;61354;50.758;6.106;2022-10-16T06:03:23;1.80;;;1.10;;
73150;SDS011;61354;50.758;6.106;2022-10-16T06:05:49;3.45;;;1.35;;
73150;SDS011;61354;50.758;6.106;2022-10-16T06:08:15;2.40;;;1.30;;
73150;SDS011;61354;50.758;6.106;2022-10-16T06:10:40;2.08;;;1.15;;
73150;SDS011;61354;50.758;6.106;2022-10-16T06:13:06;1.58;;;1.20;;
73150;SDS011;61354;50.758;6.106;2022-10-16T06:15:31;4.40;;;1.40;;
73150;SDS011;61354;50.758;6.106;2022-10-16T06:17:57;3.78;;;1.27;;
73150;SDS011;61354;50.758;6.106;2022-10-16T06:20:22;1.70;;;1.08;;
73150;SDS011;61354;50.758;6.106;2022-10-16T06:22:47;4.07;;;1.17;;
73150;SDS011;61354;50.758;6.106;2022-10-16T06:25:13;2.22;;;1.25;;
73150;SDS011;61354;50.758;6.106;2022-10-16T06:27:41;1.40;;;1.02;;
73150;SDS011;61354;50.758;6.106;2022-10-16T06:30:07;4.95;;;1.23;;
73150;SDS011;61354;50.758;6.106;2022-10-16T06:32:33;2.60;;;1.20;;
73150;SDS011;61354;50.758;6.106;2022-10-16T06:34:58;1.58;;;1.08;;
73150;SDS011;61354;50.758;6.106;2022-10-16T06:37:23;1.65;;;1.15;;
73150;SDS011;61354;50.758;6.106;2022-10-16T06:39:49;1.90;;;0.90;;
73150;SDS011;61354;50.758;6.106;2022-10-16T06:42:17;3.15;;;1.50;;
73150;SDS011;61354;50.758;6.106;2022-10-16T06:44:43;2.45;;;1.05;;
73150;SDS011;61354;50.758;6.106;2022-10-16T06:47:08;2.50;;;1.10;;
73150;SDS011;61354;50.758;6.106;2022-10-16T06:49:34;2.22;;;1.20;;
73150;SDS011;61354;50.758;6.106;2022-10-16T06:51:59;2.10;;;1.33;;
73150;SDS011;61354;50.758;6.106;2022-10-16T06:54:25;2.38;;;1.10;;
73150;SDS011;61354;50.758;6.106;2022-10-16T06:56:50;1.98;;;1.20;;
73150;SDS011;61354;50.758;6.106;2022-10-16T06:59:16;1.63;;;1.08;;
73150;SDS011;61354;50.758;6.106;2022-10-16T07:01:41;1.20;;;0.95;;
73150;SDS011;61354;50.758;6.106;2022-10-16T07:04:07;2.35;;;1.08;;
73150;SDS011;61354;50.758;6.106;2022-10-16T07:06:32;2.45;;;1.10;;
73150;SDS011;61354;50.758;6.106;2022-10-16T07:09:00;2.92;;;1.10;;
73150;SDS011;61354;50.758;6.106;2022-10-16T07:11:27;1.52;;;1.10;;
73150;SDS011;61354;50.758;6.106;2022-10-16T07:13:53;3.50;;;1.30;;
73150;SDS011;61354;50.758;6.106;2022-10-16T07:16:19;2.38;;;1.13;;
73150;SDS011;61354;50.758;6.106;2022-10-16T07:18:46;1.95;;;1.45;;
73150;SDS011;61354;50.758;6.106;2022-10-16T07:21:14;1.95;;;1.20;;
73150;SDS011;61354;50.758;6.106;2022-10-16T07:23:42;2.53;;;1.48;;
73150;SDS011;61354;50.758;6.106;2022-10-16T07:26:08;1.77;;;1.00;;
73150;SDS011;61354;50.758;6.106;2022-10-16T07:28:35;2.75;;;1.20;;
73150;SDS011;61354;50.758;6.106;2022-10-16T07:31:01;2.53;;;1.08;;
73150;SDS011;61354;50.758;6.106;2022-10-16T07:33:27;2.38;;;1.27;;
73150;SDS011;61354;50.758;6.106;2022-10-16T07:35:53;2.85;;;1.30;;
73150;SDS011;61354;50.758;6.106;2022-10-16T07:38:20;2.13;;;1.23;;
73150;SDS011;61354;50.758;6.106;2022-10-16T07:40:46;2.83;;;1.00;;
73150;SDS011;61354;50.758;6.106;2022-10-16T07:43:12;1.77;;;1.17;;
73150;SDS011;61354;50.758;6.106;2022-10-16T07:45:45;1.75;;;1.00;;
73150;SDS011;61354;50.758;6.106;2022-10-16T07:48:14;2.58;;;1.10;;
73150;SDS011;61354;50.758;6.106;2022-10-16T07:50:40;1.80;;;1.08;;
73150;SDS011;61354;50.758;6.106;2022-10-16T07:53:06;2.28;;;1.05;;
73150;SDS011;61354;50.758;6.106;2022-10-16T07:55:31;2.00;;;1.00;;
73150;SDS011;61354;50.758;6.106;2022-10-16T07:57:57;4.78;;;1.15;;
73150;SDS011;61354;50.758;6.106;2022-10-16T08:00:22;1.23;;;1.00;;
73150;SDS011;61354;50.758;6.106;2022-10-16T08:02:48;1.20;;;0.90;;
73150;SDS011;61354;50.758;6.106;2022-10-16T08:05:13;1.92;;;0.85;;
73150;SDS011;61354;50.758;6.106;2022-10-16T08:07:39;1.13;;;0.77;;
73150;SDS011;61354;50.758;6.106;2022-10-16T08:10:04;2.22;;;0.90;;
73150;SDS011;61354;50.758;6.106;2022-10-16T08:12:30;2.95;;;1.00;;
73150;SDS011;61354;50.758;6.106;2022-10-16T08:14:55;1.25;;;1.00;;
73150;SDS011;61354;50.758;6.106;2022-10-16T08:17:21;2.30;;;1.00;;
73150;SDS011;61354;50.758;6.106;2022-10-16T08:19:46;3.85;;;1.30;;
73150;SDS011;61354;50.758;6.106;2022-10-16T08:22:13;1.88;;;1.00;;
73150;SDS011;61354;50.758;6.106;2022-10-16T08:24:39;1.67;;;0.75;;
73150;SDS011;61354;50.758;6.106;2022-10-16T08:27:06;2.17;;;1.00;;
73150;SDS011;61354;50.758;6.106;2022-10-16T08:29:34;2.75;;;0.82;;
73150;SDS011;61354;50.758;6.106;2022-10-16T08:31:59;1.67;;;0.90;;
73150;SDS011;61354;50.758;6.106;2022-10-16T08:34:24;1.85;;;0.93;;
73150;SDS011;61354;50.758;6.106;2022-10-16T08:36:52;2.75;;;1.05;;
73150;SDS011;61354;50.758;6.106;2022-10-16T08:39:18;1.90;;;0.95;;
73150;SDS011;61354;50.758;6.106;2022-10-16T08:50:02;2.50;;;0.85;;
73150;SDS011;61354;50.758;6.106;2022-10-16T08:52:35;1.17;;;0.70;;
73150;SDS011;61354;50.758;6.106;2022-10-16T08:55:17;2.72;;;1.13;;
73150;SDS011;61354;50.758;6.106;2022-10-16T08:57:53;1.95;;;0.95;;
73150;SDS011;61354;50.758;6.106;2022-10-16T09:00:18;6.82;;;1.50;;
73150;SDS011;61354;50.758;6.106;2022-10-16T09:16:41;1.80;;;0.65;;
73150;SDS011;61354;50.758;6.106;2022-10-16T09:19:24;2.90;;;0.70;;
73150;SDS011;61354;50.758;6.106;2022-10-16T09:21:57;1.50;;;0.80;;
73150;SDS011;61354;50.758;6.106;2022-10-16T09:24:27;2.30;;;0.90;;
73150;SDS011;61354;50.758;6.106;2022-10-16T09:26:53;1.55;;;0.95;;
73150;SDS011;61354;50.758;6.106;2022-10-16T09:29:19;1.25;;;0.90;;
73150;SDS011;61354;50.758;6.106;2022-10-16T09:31:46;5.53;;;1.05;;
73150;SDS011;61354;50.758;6.106;2022-10-16T09:34:22;1.27;;;0.70;;
73150;SDS011;61354;50.758;6.106;2022-10-16T09:36:54;1.55;;;0.80;;
73150;SDS011;61354;50.758;6.106;2022-10-16T09:39:22;3.10;;;1.00;;
73150;SDS011;61354;50.758;6.106;2022-10-16T09:41:48;2.28;;;0.90;;
73150;SDS011;61354;50.758;6.106;2022-10-16T09:44:19;0.70;;;0.70;;
73150;SDS011;61354;50.758;6.106;2022-10-16T09:46:48;2.83;;;0.90;;
73150;SDS011;61354;50.758;6.106;2022-10-16T09:49:23;2.03;;;0.85;;
73150;SDS011;61354;50.758;6.106;2022-10-16T09:51:51;0.80;;;0.70;;
73150;SDS011;61354;50.758;6.106;2022-10-16T09:54:28;1.50;;;0.60;;
73150;SDS011;61354;50.758;6.106;2022-10-16T09:57:03;2.40;;;0.70;;
73150;SDS011;61354;50.758;6.106;2022-10-16T09:59:31;0.93;;;0.60;;
73150;SDS011;61354;50.758;6.106;2022-10-16T10:02:00;1.67;;;0.90;;
73150;SDS011;61354;50.758;6.106;2022-10-16T10:04:36;1.13;;;0.70;;
73150;SDS011;61354;50.758;6.106;2022-10-16T10:07:04;3.33;;;0.80;;
73150;SDS011;61354;50.758;6.106;2022-10-16T10:09:35;1.40;;;0.80;;
73150;SDS011;61354;50.758;6.106;2022-10-16T10:12:16;1.50;;;0.68;;
73150;SDS011;61354;50.758;6.106;2022-10-16T10:14:48;2.25;;;0.75;;
73150;SDS011;61354;50.758;6.106;2022-10-16T10:20:01;3.30;;;1.00;;
73150;SDS011;61354;50.758;6.106;2022-10-16T10:22:46;0.82;;;0.75;;
73150;SDS011;61354;50.758;6.106;2022-10-16T10:33:16;1.02;;;0.68;;
73150;SDS011;61354;50.758;6.106;2022-10-16T10:38:49;1.33;;;0.80;;
73150;SDS011;61354;50.758;6.106;2022-10-16T10:46:42;1.38;;;0.63;;
73150;SDS011;61354;50.758;6.106;2022-10-16T10:49:33;0.75;;;0.70;;
73150;SDS011;61354;50.758;6.106;2022-10-16T10:58:06;2.88;;;0.70;;
73150;SDS011;61354;50.758;6.106;2022-10-16T11:05:45;0.65;;;0.63;;
73150;SDS011;61354;50.758;6.106;2022-10-16T11:08:20;1.20;;;0.80;;
73150;SDS011;61354;50.758;6.106;2022-10-16T11:11:04;1.13;;;0.47;;
73150;SDS011;61354;50.758;6.106;2022-10-16T11:21:53;1.00;;;0.60;;
73150;SDS011;61354;50.758;6.106;2022-10-16T11:27:28;1.58;;;0.80;;
73150;SDS011;61354;50.758;6.106;2022-10-16T11:29:58;0.98;;;0.70;;
73150;SDS011;61354;50.758;6.106;2022-10-16T11:32:40;2.10;;;0.70;;
73150;SDS011;61354;50.758;6.106;2022-10-16T11:46:29;1.47;;;0.77;;
73150;SDS011;61354;50.758;6.106;2022-10-16T11:49:08;1.02;;;0.63;;
73150;SDS011;61354;50.758;6.106;2022-10-16T11:51:40;1.80;;;0.60;;
73150;SDS011;61354;50.758;6.106;2022-10-16T11:57:01;1.25;;;0.68;;
73150;SDS011;61354;50.758;6.106;2022-10-16T11:59:45;1.25;;;0.82;;
73150;SDS011;61354;50.758;6.106;2022-10-16T12:04:55;0.63;;;0.50;;
73150;SDS011;61354;50.758;6.106;2022-10-16T12:07:37;1.67;;;0.75;;
73150;SDS011;61354;50.758;6.106;2022-10-16T12:10:26;1.20;;;0.60;;
73150;SDS011;61354;50.758;6.106;2022-10-16T12:12:53;1.10;;;0.80;;
73150;SDS011;61354;50.758;6.106;2022-10-16T12:15:23;2.03;;;0.60;;
73150;SDS011;61354;50.758;6.106;2022-10-16T12:17:54;2.85;;;0.70;;
73150;SDS011;61354;50.758;6.106;2022-10-16T12:20:22;2.80;;;0.80;;
73150;SDS011;61354;50.758;6.106;2022-10-16T12:22:53;1.00;;;0.60;;
73150;SDS011;61354;50.758;6.106;2022-10-16T12:25:26;0.95;;;0.60;;
73150;SDS011;61354;50.758;6.106;2022-10-16T12:27:59;1.50;;;0.68;;
73150;SDS011;61354;50.758;6.106;2022-10-16T12:30:27;1.45;;;0.52;;
73150;SDS011;61354;50.758;6.106;2022-10-16T12:32:59;1.95;;;0.85;;
73150;SDS011;61354;50.758;6.106;2022-10-16T12:35:32;1.35;;;0.70;;
73150;SDS011;61354;50.758;6.106;2022-10-16T12:38:18;1.92;;;0.90;;
73150;SDS011;61354;50.758;6.106;2022-10-16T12:40:47;2.13;;;0.50;;
73150;SDS011;61354;50.758;6.106;2022-10-16T12:43:35;1.27;;;0.63;;
73150;SDS011;61354;50.758;6.106;2022-10-16T12:46:02;1.98;;;0.55;;
73150;SDS011;61354;50.758;6.106;2022-10-16T12:48:48;0.50;;;0.50;;
73150;SDS011;61354;50.758;6.106;2022-10-16T12:54:11;1.95;;;0.65;;
73150;SDS011;61354;50.758;6.106;2022-10-16T12:56:58;1.20;;;0.60;;
73150;SDS011;61354;50.758;6.106;2022-10-16T12:59:35;1.13;;;0.60;;
73150;SDS011;61354;50.758;6.106;2022-10-16T13:08:01;1.30;;;0.70;;
73150;SDS011;61354;50.758;6.106;2022-10-16T13:18:36;1.55;;;0.63;;
73150;SDS011;61354;50.758;6.106;2022-10-16T13:23:57;0.82;;;0.60;;
73150;SDS011;61354;50.758;6.106;2022-10-16T13:26:38;2.58;;;0.90;;
73150;SDS011;61354;50.758;6.106;2022-10-16T13:29:11;1.27;;;0.80;;
73150;SDS011;61354;50.758;6.106;2022-10-16T13:31:38;1.80;;;0.80;;
73150;SDS011;61354;50.758;6.106;2022-10-16T13:34:04;2.88;;;0.80;;
73150;SDS011;61354;50.758;6.106;2022-10-16T13:36:42;1.17;;;0.60;;
73150;SDS011;61354;50.758;6.106;2022-10-16T13:39:13;1.35;;;0.70;;
73150;SDS011;61354;50.758;6.106;2022-10-16T13:41:45;1.40;;;0.73;;
73150;SDS011;61354;50.758;6.106;2022-10-16T13:44:22;1.05;;;0.60;;
73150;SDS011;61354;50.758;6.106;2022-10-16T13:46:57;1.00;;;0.63;;
73150;SDS011;61354;50.758;6.106;2022-10-16T13:49:26;1.15;;;0.60;;
73150;SDS011;61354;50.758;6.106;2022-10-16T13:51:59;0.60;;;0.60;;
73150;SDS011;61354;50.758;6.106;2022-10-16T13:54:26;0.68;;;0.60;;
73150;SDS011;61354;50.758;6.106;2022-10-16T13:56:53;1.77;;;0.63;;
73150;SDS011;61354;50.758;6.106;2022-10-16T13:59:26;1.90;;;0.63;;
73150;SDS011;61354;50.758;6.106;2022-10-16T14:01:58;1.00;;;0.65;;
73150;SDS011;61354;50.758;6.106;2022-10-16T14:04:26;2.15;;;0.77;;
73150;SDS011;61354;50.758;6.106;2022-10-16T14:06:56;1.48;;;0.60;;
73150;SDS011;61354;50.758;6.106;2022-10-16T14:09:30;0.93;;;0.70;;
73150;SDS011;61354;50.758;6.106;2022-10-16T14:14:42;1.73;;;0.70;;
73150;SDS011;61354;50.758;6.106;2022-10-16T14:17:13;1.20;;;0.65;;
73150;SDS011;61354;50.758;6.106;2022-10-16T14:19:40;1.48;;;0.80;;
73150;SDS011;61354;50.758;6.106;2022-10-16T14:22:27;1.13;;;0.70;;
73150;SDS011;61354;50.758;6.106;2022-10-16T14:24:55;1.13;;;0.70;;
73150;SDS011;61354;50.758;6.106;2022-10-16T14:27:31;1.00;;;0.90;;
73150;SDS011;61354;50.758;6.106;2022-10-16T14:32:33;1.58;;;0.70;;
73150;SDS011;61354;50.758;6.106;2022-10-16T14:34:59;1.13;;;0.70;;
73150;SDS011;61354;50.758;6.106;2022-10-16T14:37:25;1.27;;;0.80;;
73150;SDS011;61354;50.758;6.106;2022-10-16T14:39:52;1.63;;;0.70;;
73150;SDS011;61354;50.758;6.106;2022-10-16T14:42:20;1.52;;;0.70;;
73150;SDS011;61354;50.758;6.106;2022-10-16T14:44:49;0.88;;;0.75;;
73150;SDS011;61354;50.758;6.106;2022-10-16T14:47:19;0.93;;;0.80;;
73150;SDS011;61354;50.758;6.106;2022-10-16T14:49:50;0.70;;;0.70;;
73150;SDS011;61354;50.758;6.106;2022-10-16T14:52:16;1.48;;;0.60;;
73150;SDS011;61354;50.758;6.106;2022-10-16T14:54:42;1.75;;;0.70;;
73150;SDS011;61354;50.758;6.106;2022-10-16T14:57:18;1.88;;;0.52;;
73150;SDS011;61354;50.758;6.106;2022-10-16T14:59:46;1.38;;;0.60;;
73150;SDS011;61354;50.758;6.106;2022-10-16T15:02:29;2.17;;;0.60;;
73150;SDS011;61354;50.758;6.106;2022-10-16T15:05:10;1.33;;;0.60;;
73150;SDS011;61354;50.758;6.106;2022-10-16T15:07:51;0.60;;;0.60;;
73150;SDS011;61354;50.758;6.106;2022-10-16T15:10:18;0.88;;;0.57;;
73150;SDS011;61354;50.758;6.106;2022-10-16T15:12:46;0.73;;;0.70;;
73150;SDS011;61354;50.758;6.106;2022-10-16T15:17:59;1.23;;;0.90;;
73150;SDS011;61354;50.758;6.106;2022-10-16T15:20:26;1.95;;;1.00;;
73150;SDS011;61354;50.758;6.106;2022-10-16T15:22:53;0.98;;;0.90;;
73150;SDS011;61354;50.758;6.106;2022-10-16T15:25:35;1.38;;;0.90;;
73150;SDS011;61354;50.758;6.106;2022-10-16T15:28:07;2.78;;;0.95;;
73150;SDS011;61354;50.758;6.106;2022-10-16T15:30:34;2.88;;;0.98;;
73150;SDS011;61354;50.758;6.106;2022-10-16T15:33:00;0.68;;;0.60;;
73150;SDS011;61354;50.758;6.106;2022-10-16T15:35:26;1.58;;;0.90;;
73150;SDS011;61354;50.758;6.106;2022-10-16T15:37:52;0.80;;;0.80;;
73150;SDS011;61354;50.758;6.106;2022-10-16T15:40:18;1.33;;;0.80;;
73150;SDS011;61354;50.758;6.106;2022-10-16T15:42:44;1.25;;;1.08;;
73150;SDS011;61354;50.758;6.106;2022-10-16T15:45:10;1.73;;;1.15;;
73150;SDS011;61354;50.758;6.106;2022-10-16T15:47:36;1.63;;;1.10;;
73150;SDS011;61354;50.758;6.106;2022-10-16T15:50:02;2.22;;;1.50;;
73150;SDS011;61354;50.758;6.106;2022-10-16T15:52:28;1.92;;;1.30;;
73150;SDS011;61354;50.758;6.106;2022-10-16T15:54:54;2.00;;;1.27;;
73150;SDS011;61354;50.758;6.106;2022-10-16T15:57:20;2.42;;;1.10;;
73150;SDS011;61354;50.758;6.106;2022-10-16T15:59:45;1.90;;;0.95;;
73150;SDS011;61354;50.758;6.106;2022-10-16T16:02:11;1.70;;;1.00;;
73150;SDS011;61354;50.758;6.106;2022-10-16T16:04:36;2.03;;;1.05;;
73150;SDS011;61354;50.758;6.106;2022-10-16T16:07:02;1.92;;;1.08;;
73150;SDS011;61354;50.758;6.106;2022-10-16T16:09:30;2.67;;;1.10;;
73150;SDS011;61354;50.758;6.106;2022-10-16T16:11:56;1.92;;;1.10;;
73150;SDS011;61354;50.758;6.106;2022-10-16T16:14:24;2.97;;;1.23;;
73150;SDS011;61354;50.758;6.106;2022-10-16T16:16:51;2.80;;;1.17;;
73150;SDS011;61354;50.758;6.106;2022-10-16T16:19:16;1.50;;;1.02;;
73150;SDS011;61354;50.758;6.106;2022-10-16T16:21:45;2.17;;;1.10;;
73150;SDS011;61354;50.758;6.106;2022-10-16T16:24:11;2.47;;;1.23;;
73150;SDS011;61354;50.758;6.106;2022-10-16T16:26:36;0.75;;;0.75;;
73150;SDS011;61354;50.758;6.106;2022-10-16T16:29:04;3.75;;;1.60;;
73150;SDS011;61354;50.758;6.106;2022-10-16T16:31:31;1.75;;;1.30;;
73150;SDS011;61354;50.758;6.106;2022-10-16T16:33:57;4.35;;;2.05;;
73150;SDS011;61354;50.758;6.106;2022-10-16T16:36:23;4.15;;;1.85;;
73150;SDS011;61354;50.758;6.106;2022-10-16T16:38:50;3.08;;;1.88;;
73150;SDS011;61354;50.758;6.106;2022-10-16T16:41:17;3.53;;;1.52;;
73150;SDS011;61354;50.758;6.106;2022-10-16T16:43:44;3.22;;;2.00;;
73150;SDS011;61354;50.758;6.106;2022-10-16T16:46:11;5.57;;;2.08;;
73150;SDS011;61354;50.758;6.106;2022-10-16T16:48:36;4.20;;;2.30;;
73150;SDS011;61354;50.758;6.106;2022-10-16T16:51:06;3.65;;;2.00;;
73150;SDS011;61354;50.758;6.106;2022-10-16T16:53:34;5.60;;;1.90;;
73150;SDS011;61354;50.758;6.106;2022-10-16T16:56:03;2.97;;;1.42;;
73150;SDS011;61354;50.758;6.106;2022-10-16T16:58:30;1.45;;;0.93;;
73150;SDS011;61354;50.758;6.106;2022-10-16T17:00:56;2.30;;;1.00;;
73150;SDS011;61354;50.758;6.106;2022-10-16T17:03:25;3.65;;;1.35;;
73150;SDS011;61354;50.758;6.106;2022-10-16T17:05:55;2.08;;;0.90;;
73150;SDS011;61354;50.758;6.106;2022-10-16T17:08:24;2.45;;;1.13;;